Time;durP1;ratioP1;P1;durP2;ratioP2;P2;SDS_P1;SDS_P2;PMS_P1;PMS_P2;Temp;Humidity;BMP_temperature;BMP_pressure;BME280_temperature;BME280_humidity;BME280_pressure;Samples;Min_cycle;Max_cycle;Signal;HPM_P1;HPM_P2
2022/07/30 00:02:03;;;;;;;17.50;8.67;;;;;;;;;;4988095;28;21243;-75
2022/07/30 00:04:31;;;;;;;13.63;8.43;;;;;;;;;;4983927;28;20423;-77
2022/07/30 00:06:57;;;;;;;13.50;7.93;;;22.80;39.00;;;;;;4999644;28;20424;-75
2022/07/30 00:09:22;;;;;;;14.87;8.30;;;22.90;36.30;;;;;;4990497;28;20424;-75
2022/07/30 00:11:48;;;;;;;14.50;8.90;;;22.80;38.90;;;;;;4994459;28;20437;-75
2022/07/30 00:14:13;;;;;;;14.20;8.60;;;22.70;38.00;;;;;;5003253;28;20667;-75
2022/07/30 00:16:39;;;;;;;16.07;8.57;;;;;;;;;;5008257;28;20181;-76
2022/07/30 00:19:05;;;;;;;13.43;8.00;;;22.50;39.00;;;;;;5002542;28;20193;-75
2022/07/30 00:21:31;;;;;;;15.17;8.00;;;22.60;39.60;;;;;;4988934;28;20474;-75
2022/07/30 00:23:56;;;;;;;11.77;8.23;;;22.60;39.90;;;;;;5002136;28;20214;-74
2022/07/30 00:26:22;;;;;;;14.93;8.57;;;22.50;38.20;;;;;;5010294;28;20181;-75
2022/07/30 00:28:48;;;;;;;19.63;9.70;;;;;;;;;;5004365;28;20244;-76
2022/07/30 00:31:14;;;;;;;16.63;8.40;;;;;;;;;;4994854;28;20200;-77
2022/07/30 00:33:40;;;;;;;22.03;8.93;;;;;;;;;;4997608;28;20904;-76
2022/07/30 00:36:06;;;;;;;12.00;8.17;;;22.20;39.60;;;;;;5007643;28;20419;-76
2022/07/30 00:38:32;;;;;;;25.60;8.53;;;;;;;;;;5002386;28;20446;-75
2022/07/30 00:40:58;;;;;;;18.47;8.50;;;;;;;;;;5000572;28;20429;-74
2022/07/30 00:43:24;;;;;;;15.83;8.80;;;21.90;41.00;;;;;;4997644;28;20489;-75
2022/07/30 00:45:49;;;;;;;15.37;8.80;;;22.20;40.00;;;;;;5011224;28;20440;-74
2022/07/30 00:48:15;;;;;;;17.07;8.67;;;;;;;;;;5005706;28;20199;-77
2022/07/30 00:50:41;;;;;;;14.20;8.73;;;22.00;42.10;;;;;;4995184;28;20190;-75
2022/07/30 00:53:07;;;;;;;13.87;8.80;;;22.30;40.10;;;;;;4998330;28;20464;-75
2022/07/30 00:55:33;;;;;;;15.17;8.87;;;22.10;41.90;;;;;;4990908;28;20576;-75
2022/07/30 00:57:59;;;;;;;14.93;8.80;;;22.20;41.90;;;;;;4999184;28;20444;-75
2022/07/30 01:00:25;;;;;;;21.90;9.60;;;22.30;42.10;;;;;;4988584;28;20433;-75
2022/07/30 01:02:51;;;;;;;16.90;8.87;;;22.30;41.00;;;;;;5004585;28;20274;-75
2022/07/30 01:05:17;;;;;;;21.37;9.17;;;22.40;41.10;;;;;;4997623;28;20433;-75
2022/07/30 01:07:43;;;;;;;16.80;9.77;;;22.20;41.70;;;;;;5000171;28;20183;-75
2022/07/30 01:10:12;;;;;;;17.17;9.40;;;22.10;41.30;;;;;;4997051;28;20899;-75
2022/07/30 01:12:37;;;;;;;13.53;9.50;;;22.10;42.90;;;;;;5009040;28;20826;-75
2022/07/30 01:15:06;;;;;;;15.10;9.20;;;22.30;41.70;;;;;;4993262;28;20437;-75
2022/07/30 01:17:33;;;;;;;19.00;8.30;;;22.20;41.10;;;;;;4996251;28;20196;-75
2022/07/30 01:20:05;;;;;;;14.30;9.00;;;22.50;39.90;;;;;;4994655;28;20457;-76
2022/07/30 01:22:37;;;;;;;15.10;8.57;;;;;;;;;;5009112;28;20984;-74
2022/07/30 01:25:02;;;;;;;15.40;8.00;;;22.30;41.10;;;;;;4994881;28;20444;-74
2022/07/30 01:27:35;;;;;;;14.57;8.70;;;22.20;41.30;;;;;;4997017;28;21006;-75
2022/07/30 01:30:04;;;;;;;19.07;8.97;;;22.20;43.10;;;;;;5002358;28;20214;-76
2022/07/30 01:32:32;;;;;;;17.40;8.60;;;22.10;42.30;;;;;;4999337;28;20861;-76
2022/07/30 01:34:59;;;;;;;13.40;9.17;;;22.10;43.00;;;;;;4994338;28;20453;-77
2022/07/30 01:37:26;;;;;;;14.63;8.43;;;22.00;42.10;;;;;;4987552;28;20452;-75
2022/07/30 01:39:53;;;;;;;17.83;9.37;;;22.20;42.50;;;;;;4994497;28;20442;-75
2022/07/30 01:42:20;;;;;;;14.70;8.87;;;22.10;41.70;;;;;;5004082;28;21003;-75
2022/07/30 01:44:47;;;;;;;14.17;8.53;;;22.00;42.90;;;;;;5002574;28;20442;-76
2022/07/30 01:47:16;;;;;;;15.37;9.23;;;21.90;42.80;;;;;;4993223;28;20537;-75
2022/07/30 01:49:45;;;;;;;12.00;8.33;;;21.90;42.80;;;;;;4996298;28;20575;-74
2022/07/30 01:52:11;;;;;;;14.33;8.40;;;22.00;42.70;;;;;;4994082;28;20432;-75
2022/07/30 01:54:37;;;;;;;14.20;8.10;;;21.90;42.10;;;;;;4989856;28;20444;-75
2022/07/30 01:57:04;;;;;;;18.57;8.97;;;22.20;41.60;;;;;;4994754;28;20249;-75
2022/07/30 01:59:34;;;;;;;13.50;7.63;;;22.10;42.70;;;;;;4993390;28;20438;-75
2022/07/30 02:02:00;;;;;;;14.37;9.10;;;;;;;;;;4993320;28;20493;-75
2022/07/30 02:04:26;;;;;;;17.63;8.73;;;21.90;42.80;;;;;;4993577;28;20464;-74
2022/07/30 02:07:12;;;;;;;17.80;8.47;;;;;;;;;;4993752;28;20414;-75
2022/07/30 02:09:48;;;;;;;10.90;7.53;;;21.90;41.70;;;;;;4992534;28;20433;-75
2022/07/30 02:12:28;;;;;;;22.97;8.67;;;22.00;42.00;;;;;;5008424;28;20412;-75
2022/07/30 02:15:36;;;;;;;13.20;9.20;;;22.10;41.30;;;;;;5005040;28;20442;-76
2022/07/30 02:18:55;;;;;;;16.50;8.50;;;22.10;41.10;;;;;;4994163;28;20441;-74
2022/07/30 02:21:23;;;;;;;13.43;9.17;;;22.00;41.70;;;;;;4864158;29;20542;-75
2022/07/30 02:23:51;;;;;;;19.57;9.43;;;21.80;43.30;;;;;;4859529;29;20480;-76
2022/07/30 02:26:21;;;;;;;15.90;8.93;;;21.70;42.30;;;;;;4860473;29;20444;-76
2022/07/30 02:28:51;;;;;;;13.57;8.57;;;21.60;42.60;;;;;;4868722;29;20559;-75
2022/07/30 02:31:25;;;;;;;16.00;8.57;;;21.70;42.60;;;;;;4861327;29;20533;-75
2022/07/30 02:33:56;;;;;;;17.10;7.90;;;21.70;42.60;;;;;;4860956;29;20498;-74
2022/07/30 02:36:24;;;;;;;20.57;8.97;;;21.90;42.80;;;;;;4863541;29;20455;-75
2022/07/30 02:38:51;;;;;;;15.10;9.17;;;;;;;;;;4860848;29;20442;-75
2022/07/30 02:41:19;;;;;;;21.27;8.53;;;21.50;43.10;;;;;;4858571;29;20449;-75
2022/07/30 02:43:46;;;;;;;16.53;9.17;;;21.50;43.10;;;;;;4858648;29;20514;-74
2022/07/30 02:46:12;;;;;;;14.23;8.57;;;21.60;43.50;;;;;;4861138;29;20541;-75
2022/07/30 02:48:39;;;;;;;17.90;8.90;;;21.60;43.10;;;;;;4866541;29;20955;-75
2022/07/30 02:51:06;;;;;;;18.83;9.20;;;21.70;42.60;;;;;;4861629;29;20434;-75
2022/07/30 02:53:33;;;;;;;19.83;9.30;;;21.60;43.90;;;;;;4856238;29;20468;-74
2022/07/30 02:56:00;;;;;;;15.73;8.77;;;;;;;;;;4863646;29;20521;-76
2022/07/30 02:58:27;;;;;;;18.53;9.80;;;21.60;44.70;;;;;;4962221;28;20460;-75
2022/07/30 03:00:54;;;;;;;29.60;12.20;;;21.50;45.20;;;;;;5004712;28;20427;-75
2022/07/30 03:03:27;;;;;;;40.87;10.40;;;21.40;44.20;;;;;;5000891;28;20856;-75
2022/07/30 03:05:54;;;;;;;61.87;11.00;;;21.40;45.40;;;;;;4989543;28;20468;-75
2022/07/30 03:08:20;;;;;;;28.40;11.30;;;21.30;45.00;;;;;;4992368;28;20458;-76
2022/07/30 03:10:48;;;;;;;49.27;19.00;;;21.30;44.50;;;;;;4992276;28;20425;-75
2022/07/30 03:13:16;;;;;;;23.63;12.20;;;21.30;44.80;;;;;;4994816;28;20553;-75
2022/07/30 03:15:47;;;;;;;286.27;93.33;;;21.60;43.10;;;;;;4995009;28;20424;-75
2022/07/30 03:18:15;;;;;;;26.80;11.70;;;21.60;44.00;;;;;;4991050;28;20442;-74
2022/07/30 03:20:44;;;;;;;17.40;11.40;;;21.30;43.70;;;;;;5000304;28;20479;-74
2022/07/30 03:23:11;;;;;;;19.73;10.57;;;21.20;45.00;;;;;;4997297;28;20467;-75
2022/07/30 03:25:39;;;;;;;17.67;10.90;;;21.10;45.00;;;;;;4996171;28;20876;-75
2022/07/30 03:28:06;;;;;;;18.37;10.20;;;21.20;46.10;;;;;;4994303;28;20806;-75
2022/07/30 03:30:33;;;;;;;18.90;10.20;;;21.00;46.30;;;;;;5004003;28;21252;-74
2022/07/30 03:32:59;;;;;;;17.13;10.37;;;;;;;;;;5002515;28;20783;-75
2022/07/30 03:35:25;;;;;;;19.03;10.33;;;21.00;47.30;;;;;;5003536;28;20421;-75
2022/07/30 03:37:53;;;;;;;15.27;10.27;;;20.90;45.90;;;;;;4994461;28;20442;-74
2022/07/30 03:40:20;;;;;;;21.43;10.23;;;20.90;46.20;;;;;;4999044;28;20483;-77
2022/07/30 03:42:46;;;;;;;14.70;10.80;;;;;;;;;;5000280;28;20489;-75
2022/07/30 03:45:14;;;;;;;24.40;11.20;;;20.90;46.80;;;;;;5002653;28;20975;-74
2022/07/30 03:47:41;;;;;;;17.13;10.70;;;21.10;46.00;;;;;;4993225;28;20460;-74
2022/07/30 03:50:08;;;;;;;22.60;11.03;;;21.30;44.30;;;;;;4992731;28;20482;-75
2022/07/30 03:52:37;;;;;;;15.43;10.43;;;21.00;45.80;;;;;;5007099;28;20494;-75
2022/07/30 03:55:05;;;;;;;17.20;10.10;;;20.90;47.20;;;;;;4984176;28;20432;-76
2022/07/30 03:57:31;;;;;;;14.77;10.13;;;;;;;;;;4999901;28;20421;-76
2022/07/30 03:59:57;;;;;;;17.53;10.80;;;;;;;;;;4992091;28;20432;-75
2022/07/30 04:02:23;;;;;;;19.73;10.07;;;20.70;48.30;;;;;;4991317;28;20468;-75
2022/07/30 04:04:49;;;;;;;19.67;10.37;;;;;;;;;;5000292;28;20435;-76
2022/07/30 04:07:15;;;;;;;23.53;10.80;;;;;;;;;;5000233;28;20442;-76
2022/07/30 04:09:41;;;;;;;15.43;10.23;;;;;;;;;;5000773;28;20519;-76
2022/07/30 04:12:07;;;;;;;17.30;11.00;;;;;;;;;;5003705;28;20506;-75
2022/07/30 04:14:42;;;;;;;20.33;10.50;;;20.80;47.30;;;;;;5008548;28;20422;-76
2022/07/30 04:17:20;;;;;;;15.27;9.77;;;20.80;47.70;;;;;;5008033;28;20955;-74
2022/07/30 04:19:51;;;;;;;17.27;11.20;;;20.80;48.00;;;;;;4994080;28;20972;-75
2022/07/30 04:22:26;;;;;;;24.23;11.33;;;20.80;47.40;;;;;;4999718;28;20454;-74
2022/07/30 04:24:52;;;;;;;16.83;11.00;;;20.80;46.80;;;;;;5014010;28;20783;-76
2022/07/30 04:27:18;;;;;;;18.63;10.40;;;20.80;47.50;;;;;;4998299;28;20514;-75
2022/07/30 04:29:44;;;;;;;17.37;11.00;;;;;;;;;;5012984;28;20420;-78
2022/07/30 04:32:10;;;;;;;14.93;10.80;;;20.90;46.70;;;;;;4996398;28;20780;-75
2022/07/30 04:34:44;;;;;;;20.23;10.63;;;20.90;47.20;;;;;;5005730;28;20515;-75
2022/07/30 04:37:09;;;;;;;16.07;10.43;;;21.10;46.60;;;;;;5016662;28;21200;-74
2022/07/30 04:39:35;;;;;;;15.07;10.57;;;21.20;46.00;;;;;;4996782;28;20463;-74
2022/07/30 04:42:01;;;;;;;19.20;10.40;;;;;;;;;;4997221;28;20208;-75
2022/07/30 04:44:27;;;;;;;17.13;10.40;;;;;;;;;;5003448;28;20186;-75
2022/07/30 04:46:52;;;;;;;17.70;10.60;;;21.20;46.50;;;;;;5008201;28;20865;-74
2022/07/30 04:49:19;;;;;;;19.30;10.83;;;21.10;47.10;;;;;;4997253;28;20429;-75
2022/07/30 04:51:45;;;;;;;21.83;10.43;;;21.10;46.70;;;;;;4997028;28;20653;-75
2022/07/30 04:54:13;;;;;;;19.10;11.27;;;21.30;46.40;;;;;;5000998;28;20512;-75
2022/07/30 04:56:40;;;;;;;17.27;10.40;;;21.40;45.30;;;;;;5010734;28;20499;-75
2022/07/30 04:59:06;;;;;;;20.13;10.77;;;21.40;45.40;;;;;;5005113;28;20436;-76
2022/07/30 05:01:36;;;;;;;14.30;10.17;;;21.30;46.40;;;;;;4996434;28;20420;-75
2022/07/30 05:04:03;;;;;;;20.33;10.83;;;21.60;44.30;;;;;;4997933;28;20444;-74
2022/07/30 05:06:30;;;;;;;14.87;10.23;;;21.70;44.50;;;;;;4994824;28;20441;-76
2022/07/30 05:08:56;;;;;;;17.87;10.70;;;;;;;;;;5005916;28;20507;-76
2022/07/30 05:11:22;;;;;;;16.80;11.30;;;21.60;46.10;;;;;;4997988;28;20428;-75
2022/07/30 05:13:48;;;;;;;21.87;10.90;;;21.70;45.20;;;;;;4996865;28;20460;-75
2022/07/30 05:16:15;;;;;;;19.20;10.63;;;21.70;44.30;;;;;;4998283;28;20313;-74
2022/07/30 05:18:41;;;;;;;17.83;10.63;;;;;;;;;;4999430;28;20797;-75
2022/07/30 05:21:07;;;;;;;18.60;10.47;;;;;;;;;;5002669;28;20421;-75
2022/07/30 05:23:34;;;;;;;24.47;10.53;;;22.00;42.90;;;;;;5012817;28;20464;-75
2022/07/30 05:26:00;;;;;;;1999.90;228.10;;;21.90;44.20;;;;;;5001278;28;20545;-75
2022/07/30 05:28:25;;;;;;;23.73;11.60;;;21.90;43.60;;;;;;5005034;28;20511;-75
2022/07/30 05:30:52;;;;;;;18.13;12.30;;;22.00;42.90;;;;;;5012826;28;20516;-76
2022/07/30 05:33:18;;;;;;;17.97;10.43;;;22.10;43.00;;;;;;5002698;28;20580;-75
2022/07/30 05:35:44;;;;;;;18.00;9.90;;;22.20;44.40;;;;;;5005930;28;20448;-75
2022/07/30 05:38:10;;;;;;;18.00;10.60;;;22.40;42.80;;;;;;4989345;28;20859;-75
2022/07/30 05:40:36;;;;;;;16.37;9.97;;;;;;;;;;4998442;28;20190;-75
2022/07/30 05:43:02;;;;;;;18.83;9.70;;;;;;;;;;5003512;28;20216;-76
2022/07/30 05:45:28;;;;;;;16.30;10.00;;;;;;;;;;4994209;28;20425;-77
2022/07/30 05:47:54;;;;;;;16.30;10.13;;;22.30;38.20;;;;;;4985883;28;20439;-75
2022/07/30 05:50:20;;;;;;;17.10;9.30;;;;;;;;;;4996367;28;20450;-76
2022/07/30 05:52:46;;;;;;;17.50;10.77;;;;;;;;;;4998501;28;20269;-77
2022/07/30 05:55:12;;;;;;;17.47;9.80;;;;;;;;;;4993118;28;20446;-75
2022/07/30 05:57:40;;;;;;;16.67;9.40;;;;;;;;;;5010693;28;20486;-75
2022/07/30 06:00:07;;;;;;;21.90;9.10;;;;;;;;;;4998066;28;20423;-75
2022/07/30 06:02:33;;;;;;;14.43;9.17;;;22.50;36.30;;;;;;5010916;28;20477;-75
2022/07/30 06:04:59;;;;;;;18.43;9.00;;;;;;;;;;5006775;28;20611;-75
2022/07/30 06:07:24;;;;;;;15.07;8.67;;;22.90;36.40;;;;;;5000627;28;20188;-75
2022/07/30 06:09:51;;;;;;;17.23;10.20;;;22.30;38.00;;;;;;4995010;28;20883;-75
2022/07/30 06:12:16;;;;;;;25.27;9.80;;;22.60;38.60;;;;;;4996526;28;20668;-75
2022/07/30 06:14:42;;;;;;;14.17;9.10;;;;;;;;;;5002312;28;20427;-76
2022/07/30 06:17:09;;;;;;;18.23;9.30;;;;;;;;;;4995662;28;20225;-76
2022/07/30 06:19:35;;;;;;;15.97;9.10;;;;;;;;;;5004729;28;20429;-76
2022/07/30 06:22:01;;;;;;;21.47;9.27;;;;;;;;;;5006252;28;20448;-76
2022/07/30 06:24:27;;;;;;;17.83;8.40;;;;;;;;;;5002976;28;20451;-76
2022/07/30 06:26:53;;;;;;;15.73;9.80;;;;;;;;;;4989759;28;20808;-76
2022/07/30 06:29:19;;;;;;;16.97;8.70;;;;;;;;;;5003601;28;20429;-75
2022/07/30 06:31:44;;;;;;;15.07;8.60;;;22.70;35.20;;;;;;4996462;28;20428;-75
2022/07/30 06:34:10;;;;;;;18.33;9.20;;;22.50;35.70;;;;;;5007109;28;20445;-74
2022/07/30 06:36:35;;;;;;;13.80;8.40;;;22.90;35.30;;;;;;4994754;28;20593;-75
2022/07/30 06:39:01;;;;;;;24.30;10.23;;;23.10;34.40;;;;;;4997894;28;20185;-75
2022/07/30 06:41:27;;;;;;;15.27;8.87;;;23.00;33.90;;;;;;4993080;28;20625;-75
2022/07/30 06:43:53;;;;;;;20.63;9.00;;;;;;;;;;5003542;28;20606;-75
2022/07/30 06:46:18;;;;;;;21.13;10.20;;;22.80;34.30;;;;;;4996762;28;20180;-76
2022/07/30 06:48:44;;;;;;;17.07;9.47;;;22.20;35.80;;;;;;4996774;28;20437;-75
2022/07/30 06:51:10;;;;;;;21.03;10.20;;;21.60;37.10;;;;;;5003054;28;20199;-74
2022/07/30 06:53:35;;;;;;;20.43;9.60;;;21.60;37.70;;;;;;5001636;28;20640;-75
2022/07/30 06:56:02;;;;;;;20.50;10.13;;;;;;;;;;4999288;28;20188;-76
2022/07/30 06:58:28;;;;;;;16.33;11.00;;;;;;;;;;4991556;28;20277;-77
2022/07/30 07:00:53;;;;;;;16.30;10.50;;;23.00;35.00;;;;;;4991947;28;20435;-75
2022/07/30 07:03:20;;;;;;;17.23;10.30;;;;;;;;;;5006868;28;21067;-75
2022/07/30 07:05:46;;;;;;;17.87;10.00;;;;;;;;;;5000505;28;20210;-76
2022/07/30 07:08:12;;;;;;;18.00;9.97;;;;;;;;;;5000327;28;20838;-76
2022/07/30 07:10:38;;;;;;;16.63;9.13;;;;;;;;;;4994959;28;20481;-76
2022/07/30 07:13:04;;;;;;;21.90;12.27;;;;;;;;;;4988541;28;20464;-76
2022/07/30 07:15:30;;;;;;;32.47;10.83;;;;;;;;;;4993904;28;20438;-77
2022/07/30 07:17:55;;;;;;;19.43;9.90;;;22.70;35.50;;;;;;4987357;28;20973;-78
2022/07/30 07:20:21;;;;;;;20.57;10.53;;;22.70;34.70;;;;;;4987378;28;20454;-76
2022/07/30 07:22:47;;;;;;;14.90;9.60;;;22.70;35.40;;;;;;4991600;28;20266;-76
2022/07/30 07:25:13;;;;;;;19.80;11.40;;;23.00;33.90;;;;;;4990642;28;20185;-77
2022/07/30 07:27:39;;;;;;;1860.67;172.67;;;;;;;;;;4992115;28;20187;-76
2022/07/30 07:30:05;;;;;;;17.30;9.63;;;23.10;34.50;;;;;;4992524;28;20579;-78
2022/07/30 07:32:30;;;;;;;20.30;11.00;;;22.70;34.30;;;;;;4985994;28;20546;-76
2022/07/30 07:34:56;;;;;;;1647.70;792.83;;;;;;;;;;4983511;28;20856;-78
2022/07/30 07:37:22;;;;;;;22.60;12.47;;;23.20;32.30;;;;;;4991452;28;20696;-76
2022/07/30 07:39:47;;;;;;;25.03;12.50;;;22.80;33.20;;;;;;4992654;28;20428;-76
2022/07/30 07:42:13;;;;;;;30.93;11.40;;;22.70;33.40;;;;;;4984749;28;20264;-74
2022/07/30 07:44:39;;;;;;;20.97;11.83;;;22.80;33.20;;;;;;4995916;28;20184;-75
2022/07/30 07:47:05;;;;;;;20.23;10.50;;;;;;;;;;4991960;28;20201;-75
2022/07/30 07:49:31;;;;;;;19.77;9.87;;;;;;;;;;4990041;28;20193;-75
2022/07/30 07:51:57;;;;;;;23.33;10.37;;;;;;;;;;4991258;28;20824;-76
2022/07/30 07:54:23;;;;;;;19.40;8.97;;;;;;;;;;4995203;28;20587;-75
2022/07/30 07:56:55;;;;;;;15.47;8.50;;;23.90;30.00;;;;;;5001923;28;20439;-75
2022/07/30 07:59:21;;;;;;;13.70;8.37;;;23.70;29.90;;;;;;5003551;28;20967;-75
2022/07/30 08:01:46;;;;;;;14.87;8.53;;;23.70;29.60;;;;;;5008415;28;20473;-79
2022/07/30 08:04:12;;;;;;;13.23;8.40;;;23.60;29.30;;;;;;4990607;28;20471;-75
2022/07/30 08:06:38;;;;;;;15.03;8.77;;;23.60;28.90;;;;;;4994115;28;20181;-74
2022/07/30 08:09:04;;;;;;;16.53;7.67;;;;;;;;;;4998531;28;20184;-77
2022/07/30 08:11:29;;;;;;;14.43;8.87;;;23.70;27.90;;;;;;4998145;28;20181;-75
2022/07/30 08:13:56;;;;;;;18.53;8.97;;;;;;;;;;5000187;28;20445;-75
2022/07/30 08:16:22;;;;;;;15.30;7.87;;;;;;;;;;4994058;28;20691;-76
2022/07/30 08:18:48;;;;;;;14.63;7.90;;;23.80;28.20;;;;;;4992830;28;20925;-75
2022/07/30 08:21:14;;;;;;;21.90;8.40;;;;;;;;;;4997514;28;20478;-75
2022/07/30 08:23:40;;;;;;;18.17;8.77;;;;;;;;;;5002353;28;20499;-75
2022/07/30 08:26:06;;;;;;;15.47;8.97;;;24.70;27.40;;;;;;4998048;28;20439;-75
2022/07/30 08:28:32;;;;;;;14.43;8.70;;;;;;;;;;4991730;28;20428;-74
2022/07/30 08:30:58;;;;;;;14.73;9.00;;;;;;;;;;4999103;28;20177;-76
2022/07/30 08:33:24;;;;;;;17.00;8.73;;;;;;;;;;4991559;28;20526;-76
2022/07/30 08:35:50;;;;;;;14.10;8.20;;;23.80;29.20;;;;;;4992458;28;20806;-76
2022/07/30 08:38:15;;;;;;;16.60;8.60;;;23.80;29.20;;;;;;4991982;28;20448;-75
2022/07/30 08:40:41;;;;;;;15.93;7.80;;;24.90;29.00;;;;;;4998887;28;20196;-76
2022/07/30 08:43:07;;;;;;;17.70;7.97;;;25.20;26.90;;;;;;4997609;28;20232;-76
2022/07/30 08:45:34;;;;;;;21.70;8.80;;;24.50;26.40;;;;;;4998840;28;20208;-76
2022/07/30 08:48:00;;;;;;;22.33;8.60;;;24.00;27.30;;;;;;4997825;28;20437;-77
2022/07/30 08:50:28;;;;;;;18.17;8.00;;;24.00;28.10;;;;;;4993003;28;20429;-77
2022/07/30 08:52:55;;;;;;;17.33;7.40;;;24.60;27.70;;;;;;4999797;28;20488;-76
2022/07/30 08:55:24;;;;;;;24.47;8.10;;;25.00;26.60;;;;;;4999949;28;20448;-77
2022/07/30 08:57:50;;;;;;;12.60;7.53;;;25.30;27.20;;;;;;4995137;28;20950;-76
2022/07/30 09:00:17;;;;;;;9.87;6.60;;;26.00;27.20;;;;;;4994610;28;20432;-76
2022/07/30 09:02:43;;;;;;;16.37;8.27;;;;;;;;;;5001265;28;20463;-77
2022/07/30 09:05:10;;;;;;;17.40;7.97;;;25.20;26.30;;;;;;4995351;28;20964;-76
2022/07/30 09:07:37;;;;;;;17.73;7.53;;;24.60;26.30;;;;;;5006012;28;20434;-76
2022/07/30 09:10:05;;;;;;;10.80;7.13;;;24.60;26.40;;;;;;4994616;28;20974;-77
2022/07/30 09:12:33;;;;;;;13.77;8.37;;;24.00;27.70;;;;;;4987404;28;20476;-75
2022/07/30 09:15:08;;;;;;;18.57;7.57;;;24.80;27.10;;;;;;4985787;28;20463;-76
2022/07/30 09:18:06;;;;;;;17.07;7.50;;;24.60;26.30;;;;;;4983973;28;20506;-75
2022/07/30 09:20:34;;;;;;;13.70;8.00;;;24.70;25.80;;;;;;4873755;29;20457;-76
2022/07/30 09:23:02;;;;;;;14.30;7.00;;;25.00;25.80;;;;;;4873165;29;20482;-76
2022/07/30 09:25:45;;;;;;;19.93;7.73;;;25.40;25.20;;;;;;4882787;29;20533;-75
2022/07/30 09:28:11;;;;;;;17.53;7.40;;;25.20;25.20;;;;;;4871170;29;20510;-75
2022/07/30 09:30:54;;;;;;;12.53;6.90;;;24.90;26.00;;;;;;4868527;29;22085;-77
2022/07/30 09:33:38;;;;;;;18.40;7.40;;;25.00;25.20;;;;;;4872905;29;20536;-76
2022/07/30 09:36:07;;;;;;;12.33;7.00;;;24.70;24.80;;;;;;4878372;29;21012;-77
2022/07/30 09:38:48;;;;;;;11.57;6.40;;;24.60;25.70;;;;;;4877672;29;20485;-75
2022/07/30 09:41:15;;;;;;;9.63;6.30;;;25.10;25.70;;;;;;4876914;29;20582;-75
2022/07/30 09:43:43;;;;;;;14.93;6.70;;;26.00;24.00;;;;;;4883492;29;20956;-76
2022/07/30 09:46:09;;;;;;;10.20;6.20;;;25.90;23.60;;;;;;4877107;29;20525;-76
2022/07/30 09:48:35;;;;;;;10.40;5.70;;;25.30;23.00;;;;;;4877269;29;20434;-76
2022/07/30 09:51:01;;;;;;;10.03;6.43;;;25.30;23.90;;;;;;4890715;29;20530;-76
2022/07/30 09:53:26;;;;;;;14.80;6.00;;;26.30;22.50;;;;;;4885037;29;20216;-76
2022/07/30 09:55:52;;;;;;;12.90;5.73;;;;;;;;;;4917602;28;20190;-76
2022/07/30 09:58:18;;;;;;;17.57;6.53;;;;;;;;;;5010261;28;20284;-75
2022/07/30 10:00:44;;;;;;;11.33;5.50;;;25.90;22.40;;;;;;5004398;28;20427;-76
2022/07/30 10:03:19;;;;;;;9.90;5.83;;;25.70;22.30;;;;;;4995887;28;20842;-77
2022/07/30 10:05:59;;;;;;;10.00;5.60;;;25.50;22.50;;;;;;4994399;28;20451;-75
2022/07/30 10:08:49;;;;;;;15.63;7.37;;;25.30;22.80;;;;;;5001256;28;20474;-75
2022/07/30 10:11:25;;;;;;;9.60;5.37;;;25.60;21.90;;;;;;4993235;28;20413;-76
2022/07/30 10:13:55;;;;;;;15.33;5.80;;;25.70;22.30;;;;;;5003968;28;20451;-75
2022/07/30 10:16:21;;;;;;;11.73;5.63;;;26.10;22.50;;;;;;5004160;28;20515;-76
2022/07/30 10:18:47;;;;;;;10.23;5.67;;;26.80;21.40;;;;;;5000529;28;20512;-76
2022/07/30 10:21:13;;;;;;;13.70;5.30;;;;;;;;;;5000857;28;20520;-75
2022/07/30 10:23:40;;;;;;;9.40;5.60;;;26.10;21.30;;;;;;5008253;28;20218;-76
2022/07/30 10:26:07;;;;;;;13.53;4.93;;;25.90;21.10;;;;;;5007244;28;20423;-76
2022/07/30 10:28:33;;;;;;;7.30;4.83;;;26.90;21.70;;;;;;5004084;28;20432;-75
2022/07/30 10:30:59;;;;;;;15.07;5.30;;;;;;;;;;4999064;28;20431;-76
2022/07/30 10:33:28;;;;;;;11.43;5.13;;;26.50;21.80;;;;;;5000611;28;20444;-76
2022/07/30 10:35:54;;;;;;;9.67;4.93;;;27.00;20.60;;;;;;5004361;28;20784;-75
2022/07/30 10:38:23;;;;;;;11.03;5.20;;;27.30;19.50;;;;;;4996260;28;20435;-77
2022/07/30 10:41:09;;;;;;;11.23;6.20;;;26.60;20.00;;;;;;5003147;28;20435;-75
2022/07/30 10:44:07;;;;;;;13.60;5.23;;;27.50;19.20;;;;;;5002819;28;20472;-75
2022/07/30 10:47:05;;;;;;;9.37;5.10;;;28.20;18.50;;;;;;5000942;28;20448;-76
2022/07/30 10:49:31;;;;;;;1999.90;999.90;;;27.20;19.20;;;;;;5001665;28;20417;-75
2022/07/30 10:51:57;;;;;;;1999.90;999.90;;;;;;;;;;4985770;28;20815;-75
2022/07/30 10:54:46;;;;;;;1999.90;999.90;;;26.40;20.40;;;;;;5003220;28;20455;-75
2022/07/30 10:57:17;;;;;;;1999.90;999.90;;;26.70;21.60;;;;;;4993969;28;20521;-76
2022/07/30 10:59:49;;;;;;;1999.90;999.90;;;;;;;;;;4992938;28;20468;-75
2022/07/30 11:02:16;;;;;;;1999.90;999.90;;;27.30;18.80;;;;;;4998433;28;20463;-76
2022/07/30 11:04:42;;;;;;;1999.90;999.90;;;;;;;;;;5000967;28;20424;-76
2022/07/30 11:07:23;;;;;;;1999.90;999.90;;;27.40;18.50;;;;;;4999188;28;20428;-75
2022/07/30 11:09:51;;;;;;;1999.90;999.90;;;27.80;18.10;;;;;;5000446;28;20439;-75
2022/07/30 11:12:46;;;;;;;1999.90;999.90;;;28.80;18.80;;;;;;4998151;28;20830;-76
2022/07/30 11:15:13;;;;;;;1999.90;999.90;;;29.10;16.20;;;;;;4998748;28;20439;-73
2022/07/30 11:18:04;;;;;;;1999.90;999.90;;;28.00;17.00;;;;;;4994293;28;20429;-73
2022/07/30 11:20:31;;;;;;;1999.90;999.90;;;27.50;17.90;;;;;;5000089;28;20431;-73
2022/07/30 11:23:19;;;;;;;1999.90;999.90;;;27.40;18.80;;;;;;4994143;28;20997;-73
2022/07/30 11:25:46;;;;;;;1999.90;999.90;;;27.50;19.10;;;;;;4993373;28;20447;-73
2022/07/30 11:28:44;;;;;;;1999.90;999.90;;;28.40;17.80;;;;;;5005251;28;20419;-74
2022/07/30 11:31:35;;;;;;;1999.90;999.90;;;28.20;17.10;;;;;;4987387;28;20837;-73
2022/07/30 11:34:19;;;;;;;1999.90;999.90;;;28.40;17.80;;;;;;4986448;28;20577;-74
2022/07/30 11:37:07;;;;;;;1999.90;999.90;;;28.00;17.00;;;;;;4995841;28;20487;-74
2022/07/30 11:39:54;;;;;;;1999.90;999.90;;;28.20;17.10;;;;;;4991158;28;20994;-73
2022/07/30 11:42:28;;;;;;;1999.90;999.90;;;29.70;16.40;;;;;;4987286;28;20547;-73
2022/07/30 11:45:16;;;;;;;1999.90;999.90;;;28.90;15.80;;;;;;4995534;28;20456;-73
2022/07/30 11:47:54;;;;;;;1999.90;999.90;;;29.70;14.70;;;;;;4996342;28;20428;-74
2022/07/30 11:50:25;;;;;;;1999.90;999.90;;;29.80;15.10;;;;;;5004899;28;20416;-73
2022/07/30 11:52:54;;;;;;;1999.90;999.90;;;31.00;13.40;;;;;;4994744;28;20507;-74
2022/07/30 11:55:29;;;;;;;1999.90;999.90;;;31.60;12.40;;;;;;4986747;28;20441;-74
2022/07/30 11:57:55;;;;;;;1999.90;999.90;;;31.30;13.40;;;;;;4992602;28;20507;-73
2022/07/30 12:00:22;;;;;;;7.90;3.90;;;30.00;13.90;;;;;;4997085;28;20450;-74
2022/07/30 12:02:49;;;;;;;9.80;4.20;;;29.70;14.00;;;;;;4995359;28;20512;-75
2022/07/30 12:05:21;;;;;;;8.40;4.60;;;30.10;14.20;;;;;;4985036;28;20486;-77
2022/07/30 12:07:47;;;;;;;8.33;3.70;;;29.40;14.30;;;;;;4988011;28;20437;-75
2022/07/30 12:10:18;;;;;;;5.17;3.57;;;29.90;16.30;;;;;;4991950;28;20432;-76
2022/07/30 12:12:45;;;;;;;9.40;4.67;;;31.30;13.50;;;;;;4994038;28;20304;-76
2022/07/30 12:15:28;;;;;;;8.70;4.10;;;31.70;11.90;;;;;;4995729;28;20804;-76
2022/07/30 12:17:54;;;;;;;6.47;3.80;;;;;;;;;;4984371;28;20433;-77
2022/07/30 12:20:20;;;;;;;11.93;4.23;;;;;;;;;;4987811;28;21055;-75
2022/07/30 12:22:46;;;;;;;8.47;4.43;;;29.50;13.90;;;;;;4986205;28;20478;-74
2022/07/30 12:25:13;;;;;;;9.33;3.87;;;30.50;13.70;;;;;;4987968;28;20445;-74
2022/07/30 12:27:39;;;;;;;6.40;3.70;;;31.20;14.10;;;;;;4986050;28;20468;-75
2022/07/30 12:30:07;;;;;;;11.80;3.70;;;31.50;11.30;;;;;;4988882;28;21036;-74
2022/07/30 12:32:34;;;;;;;10.30;3.90;;;31.40;12.20;;;;;;4970282;28;20452;-74
2022/07/30 12:35:00;;;;;;;8.13;4.17;;;;;;;;;;4996094;28;20523;-74
2022/07/30 12:37:26;;;;;;;7.50;3.80;;;;;;;;;;4991719;28;20539;-74
2022/07/30 12:40:14;;;;;;;16.00;4.07;;;30.40;13.00;;;;;;4993387;28;20435;-74
2022/07/30 12:42:52;;;;;;;9.53;4.50;;;30.00;14.20;;;;;;4995592;28;20479;-73
2022/07/30 12:45:31;;;;;;;12.70;4.47;;;30.00;14.00;;;;;;4998445;28;20438;-73
2022/07/30 12:47:58;;;;;;;7.57;4.23;;;29.90;14.80;;;;;;5002841;28;20427;-74
2022/07/30 12:50:25;;;;;;;9.93;4.60;;;30.30;13.10;;;;;;4997839;28;20428;-74
2022/07/30 12:52:54;;;;;;;7.00;4.17;;;30.50;12.70;;;;;;4994399;28;20447;-74
2022/07/30 12:55:32;;;;;;;11.90;4.20;;;30.00;12.80;;;;;;5002327;28;20420;-74
2022/07/30 12:58:06;;;;;;;14.03;4.20;;;29.90;13.50;;;;;;4995424;28;20787;-74
2022/07/30 13:00:34;;;;;;;23.13;4.33;;;29.90;14.10;;;;;;5002720;28;20429;-74
2022/07/30 13:03:00;;;;;;;10.30;3.80;;;30.60;13.00;;;;;;4997876;28;20884;-73
2022/07/30 13:05:46;;;;;;;8.70;3.80;;;31.10;14.90;;;;;;4994787;28;20471;-74